createdAt,value
2018-10-11T00:00:53.760Z,25.50
2018-10-11T00:03:23.167Z,29.67
2018-10-11T00:05:52.115Z,29.42
2018-10-11T00:08:21.084Z,32.67
2018-10-11T00:10:50.071Z,34.63
2018-10-11T00:13:19.109Z,30.00
2018-10-11T00:15:47.999Z,30.85
2018-10-11T00:18:17.000Z,28.73
2018-10-11T00:20:46.501Z,34.18
2018-10-11T00:23:15.403Z,30.68
2018-10-11T00:25:44.394Z,32.08
2018-10-11T00:28:13.290Z,28.00
2018-10-11T00:30:42.186Z,31.45
2018-10-11T00:33:11.223Z,27.25
2018-10-11T00:35:40.176Z,27.98
2018-10-11T00:38:09.136Z,28.92
2018-10-11T00:40:38.153Z,27.10
2018-10-11T00:43:07.596Z,28.60
2018-10-11T00:45:36.492Z,27.73
2018-10-11T00:48:05.992Z,27.90
2018-10-11T00:50:34.924Z,28.73
2018-10-11T00:53:03.948Z,27.90
2018-10-11T00:55:33.030Z,28.12
2018-10-11T00:58:02.055Z,27.30
2018-10-11T01:00:30.995Z,26.77
2018-10-11T01:03:00.015Z,27.27
2018-10-11T01:05:28.963Z,27.55
2018-10-11T01:07:57.911Z,30.08
2018-10-11T01:10:26.998Z,28.38
2018-10-11T01:12:56.022Z,29.90
2018-10-11T01:15:25.379Z,32.17
2018-10-11T01:17:54.457Z,30.75
2018-10-11T01:20:23.493Z,30.85
2018-10-11T01:22:52.386Z,30.20
2018-10-11T01:25:21.394Z,31.05
2018-10-11T01:27:50.444Z,32.55
2018-10-11T01:30:19.402Z,30.68
2018-10-11T01:32:48.413Z,29.32
2018-10-11T01:35:17.722Z,33.15
2018-10-11T01:37:46.688Z,30.77
2018-10-11T01:40:15.651Z,33.53
2018-10-11T01:42:44.638Z,29.82
2018-10-11T01:45:13.613Z,29.12
2018-10-11T01:47:42.625Z,28.90
2018-10-11T01:50:11.539Z,30.72
2018-10-11T01:52:40.471Z,31.75
2018-10-11T01:55:09.515Z,31.50
2018-10-11T01:57:38.433Z,29.72
2018-10-11T02:00:07.464Z,30.43
2018-10-11T02:02:37.363Z,32.88
2018-10-11T02:05:06.280Z,33.95
2018-10-11T02:07:35.193Z,33.05
2018-10-11T02:10:04.613Z,35.48
2018-10-11T02:12:33.586Z,31.52
2018-10-11T02:15:02.553Z,31.07
2018-10-11T02:17:31.722Z,34.18
2018-10-11T02:20:00.699Z,33.35
2018-10-11T02:22:29.656Z,31.30
2018-10-11T02:24:59.587Z,33.55
2018-10-11T02:27:28.549Z,34.43
2018-10-11T02:29:57.488Z,34.60
2018-10-11T02:32:27.382Z,34.50
2018-10-11T02:34:56.494Z,33.30
2018-10-11T02:37:25.506Z,34.13
2018-10-11T02:39:54.739Z,34.00
2018-10-11T02:42:23.743Z,32.35
2018-10-11T02:44:52.657Z,32.35
2018-10-11T02:47:21.782Z,32.83
2018-10-11T02:49:50.704Z,33.48
2018-10-11T02:52:19.708Z,32.45
2018-10-11T02:54:48.784Z,34.50
2018-10-11T02:57:28.815Z,31.60
2018-10-11T02:59:58.129Z,32.23
2018-10-11T03:02:27.263Z,31.80
2018-10-11T03:04:56.600Z,33.95
2018-10-11T03:07:26.993Z,34.38
2018-10-11T03:09:56.306Z,34.00
2018-10-11T03:12:25.401Z,34.73
2018-10-11T03:14:54.457Z,36.75
2018-10-11T03:17:23.487Z,31.82
2018-10-11T03:19:52.522Z,33.67
2018-10-11T03:22:21.548Z,36.93
2018-10-11T03:24:50.631Z,33.65
2018-10-11T03:27:19.672Z,33.23
2018-10-11T03:29:48.688Z,35.80
2018-10-11T03:32:17.734Z,34.95
2018-10-11T03:34:46.763Z,34.15
2018-10-11T03:37:15.971Z,35.38
2018-10-11T03:39:44.858Z,33.53
2018-10-11T03:42:13.786Z,37.13
2018-10-11T03:44:42.884Z,34.65
2018-10-11T03:47:11.894Z,35.73
2018-10-11T03:49:40.805Z,32.80
2018-10-11T03:52:09.795Z,34.78
2018-10-11T03:54:38.718Z,38.42
2018-10-11T03:57:08.022Z,35.88
2018-10-11T03:59:37.049Z,37.05
2018-10-11T04:02:05.959Z,36.10
2018-10-11T04:04:34.916Z,40.73
2018-10-11T04:07:04.060Z,38.80
2018-10-11T04:09:33.029Z,39.15
2018-10-11T04:12:02.083Z,38.78
2018-10-11T04:14:31.996Z,36.08
2018-10-11T04:17:00.920Z,35.70
2018-10-11T04:19:29.912Z,39.67
2018-10-11T04:21:58.874Z,39.40
2018-10-11T04:24:27.791Z,37.58
2018-10-11T04:26:56.754Z,39.60
2018-10-11T04:29:26.350Z,37.15
2018-10-11T04:31:55.342Z,39.45
2018-10-11T04:34:24.444Z,39.35
2018-10-11T04:36:53.474Z,40.08
2018-10-11T04:39:22.459Z,41.77
2018-10-11T04:41:51.425Z,40.52
2018-10-11T04:44:20.469Z,37.17
2018-10-11T04:46:49.459Z,41.80
2018-10-11T04:49:18.427Z,42.40
2018-10-11T04:51:47.448Z,41.37
2018-10-11T04:54:16.446Z,41.53
2018-10-11T04:56:45.411Z,42.98
2018-10-11T04:59:14.456Z,43.52
2018-10-11T05:01:43.413Z,45.20
2018-10-11T05:04:12.428Z,41.88
2018-10-11T05:06:41.401Z,41.28
2018-10-11T05:09:10.339Z,42.15
2018-10-11T05:11:40.224Z,44.60
2018-10-11T05:14:09.391Z,45.52
2018-10-11T05:16:38.419Z,47.85
2018-10-11T05:19:07.493Z,47.53
2018-10-11T05:21:36.680Z,46.35
2018-10-11T05:24:05.688Z,46.92
2018-10-11T05:26:34.597Z,44.83
2018-10-11T05:29:03.733Z,45.10
2018-10-11T05:31:32.917Z,42.80
2018-10-11T05:34:01.912Z,46.60
2018-10-11T05:36:31.521Z,48.20
2018-10-11T05:39:00.484Z,50.33
2018-10-11T05:41:29.523Z,45.17
2018-10-11T05:43:58.627Z,46.18
2018-10-11T05:46:30.355Z,48.25
2018-10-11T05:49:00.632Z,44.83
2018-10-11T05:51:30.638Z,44.65
2018-10-11T05:54:00.352Z,50.15
2018-10-11T05:56:32.829Z,45.45
2018-10-11T05:59:02.076Z,46.30
2018-10-11T06:01:31.901Z,46.28
2018-10-11T06:04:01.250Z,48.65
2018-10-11T06:06:30.261Z,48.17
2018-10-11T06:08:59.896Z,40.17
2018-10-11T06:11:29.025Z,40.70
2018-10-11T06:13:58.126Z,36.05
2018-10-11T06:16:27.088Z,35.28
2018-10-11T06:18:56.072Z,36.10
2018-10-11T06:21:25.310Z,34.13
2018-10-11T06:23:54.354Z,32.88
2018-10-11T06:26:23.374Z,32.73
2018-10-11T06:28:52.589Z,34.75
2018-10-11T06:31:21.639Z,30.10
2018-10-11T06:33:50.684Z,31.17
2018-10-11T06:36:19.794Z,32.08
2018-10-11T06:38:48.821Z,34.40
2018-10-11T06:41:17.966Z,31.60
2018-10-11T06:43:47.074Z,32.53
2018-10-11T06:46:16.120Z,34.13
2018-10-11T06:48:45.159Z,28.12
2018-10-11T06:51:14.245Z,29.92
2018-10-11T06:53:43.284Z,32.17
2018-10-11T06:56:12.212Z,33.28
2018-10-11T06:58:41.185Z,32.03
2018-10-11T07:01:10.094Z,32.40
2018-10-11T07:03:39.012Z,31.12
2018-10-11T07:06:08.043Z,32.25
2018-10-11T07:08:36.961Z,32.80
2018-10-11T07:11:05.888Z,30.20
2018-10-11T07:13:34.899Z,32.13
2018-10-11T07:16:03.818Z,30.02
2018-10-11T07:18:33.553Z,29.10
2018-10-11T07:21:02.597Z,30.62
2018-10-11T07:23:31.499Z,31.05
2018-10-11T07:26:00.640Z,31.33
2018-10-11T07:28:29.649Z,29.48
2018-10-11T07:30:58.596Z,31.27
2018-10-11T07:33:27.565Z,31.60
2018-10-11T07:35:56.565Z,32.23
2018-10-11T07:38:25.559Z,28.17
2018-10-11T07:40:54.545Z,31.27
2018-10-11T07:43:23.680Z,29.18
2018-10-11T07:45:52.679Z,29.92
2018-10-11T07:48:21.594Z,29.55
2018-10-11T07:50:50.567Z,31.05
2018-10-11T07:53:19.476Z,27.42
2018-10-11T07:55:48.448Z,27.90
2018-10-11T07:58:17.438Z,28.85
2018-10-11T08:00:46.355Z,27.85
2018-10-11T08:03:15.266Z,29.07
2018-10-11T08:05:44.223Z,28.95
2018-10-11T08:08:13.112Z,27.32
2018-10-11T08:10:42.152Z,29.57
2018-10-11T08:13:11.244Z,30.37
2018-10-11T08:15:40.246Z,28.83
2018-10-11T08:18:09.167Z,29.45
2018-10-11T08:20:38.205Z,27.37
2018-10-11T08:23:07.137Z,29.70
2018-10-11T08:25:36.244Z,29.20
2018-10-11T08:28:05.046Z,28.25
2018-10-11T08:30:33.953Z,28.80
2018-10-11T08:33:02.937Z,26.70
2018-10-11T08:35:31.979Z,30.85
2018-10-11T08:38:01.068Z,25.43
2018-10-11T08:40:29.927Z,28.80
2018-10-11T08:42:58.907Z,27.45
2018-10-11T08:45:27.833Z,26.85
2018-10-11T08:47:56.799Z,28.75
2018-10-11T08:50:25.941Z,26.93
2018-10-11T08:52:54.920Z,26.17
2018-10-11T08:55:23.981Z,23.80
2018-10-11T08:57:53.067Z,25.45
2018-10-11T09:00:22.161Z,23.60
2018-10-11T09:02:51.177Z,23.75
2018-10-11T09:05:20.328Z,26.77
2018-10-11T09:07:49.282Z,24.80
2018-10-11T09:10:18.276Z,23.73
2018-10-11T09:12:47.337Z,25.52
2018-10-11T09:15:16.360Z,25.95
2018-10-11T09:17:45.407Z,25.30
2018-10-11T09:20:14.459Z,24.95
2018-10-11T09:22:43.457Z,24.50
2018-10-11T09:25:12.529Z,25.88
2018-10-11T09:27:41.544Z,25.08
2018-10-11T09:30:10.592Z,26.10
2018-10-11T09:32:39.581Z,25.27
2018-10-11T09:35:08.898Z,23.52
2018-10-11T09:37:38.112Z,29.25
2018-10-11T09:40:07.195Z,27.32
2018-10-11T09:42:36.386Z,26.85
2018-10-11T09:45:05.559Z,26.00
2018-10-11T09:47:34.565Z,22.77
2018-10-11T09:50:03.692Z,24.07
2018-10-11T09:52:32.740Z,23.95
2018-10-11T09:55:01.728Z,21.82
2018-10-11T09:57:33.879Z,22.25
2018-10-11T10:00:04.136Z,20.02
2018-10-11T10:02:33.458Z,19.40
2018-10-11T10:05:03.620Z,22.20
2018-10-11T10:07:32.655Z,20.50
2018-10-11T10:10:01.859Z,20.97
2018-10-11T10:12:30.798Z,20.72
2018-10-11T10:14:59.815Z,18.32
2018-10-11T10:17:28.828Z,18.17
2018-10-11T10:19:57.889Z,17.48
2018-10-11T10:22:27.829Z,19.67
2018-10-11T10:24:56.877Z,19.80
2018-10-11T10:27:26.008Z,19.60
2018-10-11T10:29:55.059Z,19.27
2018-10-11T10:32:24.105Z,20.97
2018-10-11T10:34:53.135Z,19.57
2018-10-11T10:37:22.131Z,20.35
2018-10-11T10:39:51.156Z,19.77
2018-10-11T10:42:20.249Z,19.60
2018-10-11T10:44:49.234Z,16.90
2018-10-11T10:47:18.274Z,18.07
2018-10-11T10:49:47.347Z,15.63
2018-10-11T10:52:16.414Z,16.87
2018-10-11T10:54:45.410Z,15.93
2018-10-11T10:57:14.432Z,17.37
2018-10-11T10:59:43.323Z,17.40
2018-10-11T11:02:12.212Z,16.40
2018-10-11T11:04:41.188Z,17.32
2018-10-11T11:07:10.169Z,15.48
2018-10-11T11:09:39.225Z,15.90
2018-10-11T11:12:08.244Z,15.78
2018-10-11T11:14:37.160Z,15.38
2018-10-11T11:17:06.142Z,14.10
2018-10-11T11:19:35.087Z,11.95
2018-10-11T11:22:04.053Z,13.48
2018-10-11T11:27:25.826Z,13.68
2018-10-11T11:29:54.784Z,12.30
2018-10-11T11:32:23.737Z,12.80
2018-10-11T11:34:52.795Z,10.98
2018-10-11T11:37:21.740Z,12.43
2018-10-11T11:39:50.735Z,12.85
2018-10-11T11:42:19.819Z,11.93
2018-10-11T11:44:48.757Z,11.88
2018-10-11T11:47:17.718Z,12.53
2018-10-11T11:49:46.706Z,12.15
2018-10-11T11:52:15.728Z,11.60
2018-10-11T11:54:44.689Z,12.25
2018-10-11T11:57:14.119Z,12.43
2018-10-11T11:59:43.038Z,13.15
2018-10-11T12:02:12.095Z,12.05
2018-10-11T12:04:41.134Z,13.53
2018-10-11T12:07:10.088Z,11.97
2018-10-11T12:09:39.019Z,12.60
2018-10-11T12:12:08.080Z,11.45
2018-10-11T12:14:36.995Z,11.70
2018-10-11T12:17:05.966Z,10.93
2018-10-11T12:19:35.025Z,11.15
2018-10-11T12:22:04.014Z,11.05
2018-10-11T12:24:33.173Z,12.43
2018-10-11T12:27:02.304Z,10.30
2018-10-11T12:29:31.260Z,9.75
2018-10-11T12:32:00.169Z,8.55
2018-10-11T12:34:29.151Z,8.83
2018-10-11T12:36:58.104Z,7.80
2018-10-11T12:39:27.136Z,9.15
2018-10-11T12:41:56.191Z,9.53
2018-10-11T12:44:25.306Z,7.10
2018-10-11T12:46:54.337Z,8.43
2018-10-11T12:49:23.443Z,8.85
2018-10-11T12:51:52.488Z,7.45
2018-10-11T12:54:21.456Z,9.35
2018-10-11T12:56:50.492Z,8.20
2018-10-11T12:59:19.530Z,8.13
2018-10-11T13:01:49.012Z,7.53
2018-10-11T13:04:18.042Z,7.60
2018-10-11T13:06:46.962Z,8.20
2018-10-11T13:09:15.941Z,8.90
2018-10-11T13:11:44.989Z,9.28
2018-10-11T13:14:13.907Z,9.88
2018-10-11T13:16:42.891Z,10.00
2018-10-11T13:19:11.868Z,9.08
2018-10-11T13:21:40.788Z,9.00
2018-10-11T13:24:09.718Z,9.23
2018-10-11T13:26:38.696Z,9.15
2018-10-11T13:29:07.604Z,9.05
2018-10-11T13:31:36.560Z,9.30
2018-10-11T13:34:05.643Z,8.20
2018-10-11T13:36:34.584Z,8.53
2018-10-11T13:39:03.675Z,8.13
2018-10-11T13:41:32.681Z,9.05
2018-10-11T13:44:01.610Z,8.68
2018-10-11T13:46:30.938Z,8.55
2018-10-11T13:48:59.969Z,8.95
2018-10-11T13:51:29.356Z,8.90
2018-10-11T13:53:58.792Z,8.00
2018-10-11T13:56:27.817Z,8.60
2018-10-11T13:58:56.853Z,7.83
2018-10-11T14:01:25.775Z,8.18
2018-10-11T14:03:54.792Z,7.62
2018-10-11T14:06:23.722Z,7.40
2018-10-11T14:08:52.779Z,8.20
2018-10-11T14:11:21.804Z,6.50
2018-10-11T14:13:50.748Z,6.10
2018-10-11T14:16:19.646Z,5.70
2018-10-11T14:18:48.671Z,5.65
2018-10-11T14:21:17.635Z,5.50
2018-10-11T14:23:46.688Z,5.85
2018-10-11T14:26:15.994Z,5.10
2018-10-11T14:28:44.996Z,5.87
2018-10-11T14:31:14.084Z,6.60
2018-10-11T14:33:43.290Z,4.87
2018-10-11T14:36:12.348Z,5.25
2018-10-11T14:38:42.290Z,5.33
2018-10-11T14:41:11.271Z,5.62
2018-10-11T14:43:40.308Z,5.22
2018-10-11T14:46:09.526Z,4.80
2018-10-11T14:48:38.578Z,5.92
2018-10-11T14:51:08.158Z,5.35
2018-10-11T14:53:37.232Z,5.10
2018-10-11T14:56:06.360Z,5.22
2018-10-11T14:58:35.399Z,4.17
2018-10-11T15:01:04.838Z,5.70
2018-10-11T15:03:34.068Z,6.20
2018-10-11T15:06:03.070Z,5.50
2018-10-11T15:08:33.558Z,4.90
2018-10-11T15:11:03.823Z,4.70
2018-10-11T15:13:33.035Z,5.30
2018-10-11T15:16:03.448Z,5.70
2018-10-11T15:18:32.606Z,5.25
2018-10-11T15:21:01.552Z,4.65
2018-10-11T15:23:30.501Z,5.30
2018-10-11T15:25:59.495Z,5.03
2018-10-11T15:28:28.441Z,5.20
2018-10-11T15:30:57.456Z,4.80
2018-10-11T15:33:26.617Z,4.72
2018-10-11T15:35:55.552Z,5.83
2018-10-11T15:38:24.561Z,4.70
2018-10-11T15:40:53.583Z,4.22
2018-10-11T15:43:22.591Z,5.62
2018-10-11T15:45:52.265Z,5.37
2018-10-11T15:48:21.219Z,4.92
2018-10-11T15:50:50.152Z,4.90
2018-10-11T15:53:19.164Z,5.28
2018-10-11T15:55:48.214Z,5.35
2018-10-11T15:58:17.132Z,5.33
2018-10-11T16:00:46.783Z,5.80
2018-10-11T16:03:15.983Z,6.17
2018-10-11T16:05:45.057Z,5.03
2018-10-11T16:08:14.928Z,7.97
2018-10-11T16:10:43.903Z,5.97
2018-10-11T16:13:12.856Z,5.62
2018-10-11T16:15:41.823Z,6.35
2018-10-11T16:18:10.972Z,5.85
2018-10-11T16:20:39.942Z,5.42
2018-10-11T16:23:08.950Z,6.35
2018-10-11T16:25:38.001Z,5.45
2018-10-11T16:28:06.984Z,5.17
2018-10-11T16:30:36.147Z,6.12
2018-10-11T16:33:05.372Z,6.65
2018-10-11T16:35:34.358Z,7.12
2018-10-11T16:38:03.373Z,6.95
2018-10-11T16:40:32.790Z,8.20
2018-10-11T16:43:01.760Z,7.90
2018-10-11T16:45:30.746Z,8.75
2018-10-11T16:47:59.752Z,8.53
2018-10-11T16:50:28.754Z,9.08
2018-10-11T16:52:57.968Z,8.40
2018-10-11T16:55:27.052Z,9.28
2018-10-11T16:57:55.969Z,9.28
2018-10-11T17:00:25.184Z,9.63
2018-10-11T17:02:54.365Z,8.73
2018-10-11T17:05:23.352Z,7.90
2018-10-11T17:07:53.366Z,9.20
2018-10-11T17:10:22.615Z,9.75
2018-10-11T17:12:51.548Z,9.18
2018-10-11T17:15:20.540Z,9.10
2018-10-11T17:17:49.550Z,8.33
2018-10-11T17:20:18.496Z,9.45
2018-10-11T17:22:47.427Z,10.15
2018-10-11T17:25:16.479Z,8.83
2018-10-11T17:27:45.472Z,7.60
2018-10-11T17:30:14.621Z,8.18
2018-10-11T17:32:43.659Z,8.40
2018-10-11T17:35:12.655Z,8.40
2018-10-11T17:37:41.668Z,7.62
2018-10-11T17:40:11.204Z,8.00
2018-10-11T17:42:40.242Z,8.85
2018-10-11T17:45:09.209Z,7.47
2018-10-11T17:47:38.275Z,8.73
2018-10-11T17:50:08.096Z,8.95
2018-10-11T17:52:37.065Z,9.10
2018-10-11T17:55:06.132Z,8.45
2018-10-11T17:57:35.121Z,8.90
2018-10-11T18:00:04.568Z,9.18
2018-10-11T18:02:33.560Z,9.23
2018-10-11T18:05:02.475Z,8.18
2018-10-11T18:07:31.399Z,9.08
2018-10-11T18:10:00.583Z,9.68
2018-10-11T18:12:29.539Z,10.25
2018-10-11T18:14:58.506Z,8.43
2018-10-11T18:17:27.567Z,9.40
2018-10-11T18:19:56.596Z,9.33
2018-10-11T18:22:25.629Z,8.58
2018-10-11T18:24:54.678Z,10.30
2018-10-11T18:27:23.698Z,9.68
2018-10-11T18:29:52.679Z,9.55
2018-10-11T18:32:21.684Z,11.12
2018-10-11T18:34:50.771Z,9.80
2018-10-11T18:37:19.756Z,10.50
2018-10-11T18:39:48.821Z,11.63
2018-10-11T18:42:17.758Z,12.00
2018-10-11T18:44:46.793Z,10.53
2018-10-11T18:47:15.994Z,11.73
2018-10-11T18:49:44.913Z,11.22
2018-10-11T18:52:15.088Z,10.28
2018-10-11T18:54:44.099Z,11.18
2018-10-11T18:57:16.199Z,12.10
2018-10-11T18:59:45.248Z,12.63
2018-10-11T19:02:14.316Z,12.60
2018-10-11T19:04:43.274Z,12.13
2018-10-11T19:07:12.432Z,11.00
2018-10-11T19:09:41.360Z,13.22
2018-10-11T19:12:10.943Z,12.70
2018-10-11T19:14:40.019Z,10.70
2018-10-11T19:17:09.155Z,12.13
2018-10-11T19:19:38.299Z,11.97
2018-10-11T19:22:07.408Z,9.73
2018-10-11T19:24:36.383Z,12.75
2018-10-11T19:27:05.369Z,11.50
2018-10-11T19:29:34.454Z,10.40
2018-10-11T19:32:03.531Z,12.00
2018-10-11T19:34:32.625Z,12.65
2018-10-11T19:37:01.706Z,11.40
2018-10-11T19:39:30.791Z,11.10
2018-10-11T19:42:00.056Z,13.00
2018-10-11T19:44:29.120Z,12.70
2018-10-11T19:46:58.172Z,12.85
2018-10-11T19:49:27.118Z,12.75
2018-10-11T19:51:56.235Z,11.93
2018-10-11T19:54:25.297Z,11.35
2018-10-11T19:56:54.779Z,10.28
2018-10-11T19:59:23.896Z,10.93
2018-10-11T20:01:52.920Z,11.22
2018-10-11T20:04:21.966Z,11.85
2018-10-11T20:06:51.116Z,11.43
2018-10-11T20:09:20.147Z,10.98
2018-10-11T20:11:49.137Z,10.93
2018-10-11T20:14:18.103Z,11.28
2018-10-11T20:16:47.572Z,12.07
2018-10-11T20:19:17.801Z,11.35
2018-10-11T20:21:48.138Z,10.60
2018-10-11T20:24:17.435Z,11.43
2018-10-11T20:26:46.590Z,11.55
2018-10-11T20:29:15.778Z,13.18
2018-10-11T20:31:44.869Z,10.75
2018-10-11T20:34:13.996Z,10.38
2018-10-11T20:36:43.134Z,12.03
2018-10-11T20:39:12.305Z,10.10
2018-10-11T20:41:41.244Z,10.50
2018-10-11T20:44:10.356Z,11.03
2018-10-11T20:46:39.514Z,10.75
2018-10-11T20:49:08.714Z,10.03
2018-10-11T20:51:37.711Z,11.22
2018-10-11T20:54:06.804Z,9.95
2018-10-11T20:56:35.935Z,12.30
2018-10-11T20:59:05.024Z,10.80
2018-10-11T21:01:34.051Z,13.05
2018-10-11T21:04:03.097Z,11.57
2018-10-11T21:06:32.356Z,12.30
2018-10-11T21:09:01.907Z,13.98
2018-10-11T21:11:31.014Z,12.63
2018-10-11T21:14:00.392Z,14.07
2018-10-11T21:16:29.512Z,13.10
2018-10-11T21:18:58.500Z,13.98
2018-10-11T21:21:27.592Z,14.87
2018-10-11T21:23:56.836Z,14.20
2018-10-11T21:26:25.809Z,14.15
2018-10-11T21:28:54.879Z,15.48
2018-10-11T21:31:24.203Z,14.70
2018-10-11T21:33:53.231Z,14.73
2018-10-11T21:36:22.309Z,17.05
2018-10-11T21:38:51.826Z,14.95
2018-10-11T21:41:20.820Z,16.73
2018-10-11T21:43:49.910Z,17.42
2018-10-11T21:46:19.387Z,17.77
2018-10-11T21:48:48.393Z,17.48
2018-10-11T21:51:17.403Z,17.95
2018-10-11T21:53:46.903Z,18.57
2018-10-11T21:56:16.179Z,19.12
2018-10-11T21:58:45.488Z,17.92
2018-10-11T22:01:20.638Z,18.70
2018-10-11T22:03:49.760Z,18.00
2018-10-11T22:06:19.516Z,21.15
2018-10-11T22:08:49.037Z,20.02
2018-10-11T22:11:18.172Z,19.73
2018-10-11T22:13:47.731Z,18.07
2018-10-11T22:16:16.839Z,18.90
2018-10-11T22:18:45.844Z,18.40
2018-10-11T22:21:14.821Z,19.17
2018-10-11T22:23:44.268Z,19.52
2018-10-11T22:26:14.374Z,22.52
2018-10-11T22:28:46.519Z,18.73
2018-10-11T22:31:15.693Z,20.10
2018-10-11T22:33:44.903Z,20.12
2018-10-11T22:36:14.289Z,20.05
2018-10-11T22:38:43.288Z,20.52
2018-10-11T22:41:12.822Z,21.27
2018-10-11T22:43:42.501Z,22.37
2018-10-11T22:46:12.430Z,22.70
2018-10-11T22:48:41.732Z,21.97
2018-10-11T22:51:10.907Z,23.95
2018-10-11T22:53:39.915Z,22.80
2018-10-11T22:56:08.998Z,20.80
2018-10-11T22:58:37.992Z,23.25
2018-10-11T23:01:07.226Z,24.15
2018-10-11T23:03:36.259Z,22.73
2018-10-11T23:06:05.261Z,24.70
2018-10-11T23:08:34.663Z,24.15
2018-10-11T23:11:03.717Z,26.45
2018-10-11T23:13:32.711Z,24.20
2018-10-11T23:16:01.691Z,26.25
2018-10-11T23:18:30.695Z,26.15
2018-10-11T23:20:59.756Z,25.57
2018-10-11T23:23:28.855Z,24.60
2018-10-11T23:25:58.955Z,28.67
2018-10-11T23:28:28.057Z,25.50
2018-10-11T23:30:56.996Z,28.62
2018-10-11T23:33:26.020Z,26.02
2018-10-11T23:35:55.009Z,26.60
2018-10-11T23:38:24.061Z,26.68
2018-10-11T23:40:53.043Z,30.85
2018-10-11T23:43:22.004Z,28.15
2018-10-11T23:45:51.064Z,28.38
2018-10-11T23:48:20.285Z,28.80
2018-10-11T23:50:49.317Z,29.77
2018-10-11T23:53:18.325Z,28.65
2018-10-11T23:55:47.341Z,29.72
2018-10-11T23:58:16.337Z,31.68
